sensor_id;sensor_type;location;lat;lon;timestamp;pressure;altitude;pressure_sealevel;temperature;humidity
44297;BME280;51842;47.450;8.654;2024-03-23T00:53:49;95043.75;;;6.88;99.26
44297;BME280;51842;47.450;8.654;2024-03-23T00:56:15;95041.16;;;6.99;98.38
44297;BME280;51842;47.450;8.654;2024-03-23T00:58:40;95030.13;;;7.12;97.74
44297;BME280;51842;47.450;8.654;2024-03-23T01:01:06;95024.38;;;7.25;97.36
44297;BME280;51842;47.450;8.654;2024-03-23T01:03:32;95033.75;;;7.43;96.47
44297;BME280;51842;47.450;8.654;2024-03-23T01:06:03;95018.78;;;7.74;94.78
44297;BME280;51842;47.450;8.654;2024-03-23T01:08:29;95016.19;;;8.05;92.19
44297;BME280;51842;47.450;8.654;2024-03-23T01:11:02;95005.91;;;8.29;90.82
44297;BME280;51842;47.450;8.654;2024-03-23T01:13:28;95006.47;;;8.51;89.18
44297;BME280;51842;47.450;8.654;2024-03-23T01:15:56;95003.56;;;8.68;88.04
44297;BME280;51842;47.450;8.654;2024-03-23T01:18:24;95003.00;;;8.87;87.28
44297;BME280;51842;47.450;8.654;2024-03-23T01:20:52;95002.47;;;9.00;86.10
44297;BME280;51842;47.450;8.654;2024-03-23T01:23:17;94996.59;;;9.13;85.03
44297;BME280;51842;47.450;8.654;2024-03-23T01:25:43;94997.09;;;9.20;83.80
44297;BME280;51842;47.450;8.654;2024-03-23T01:28:09;94997.34;;;9.34;83.72
44297;BME280;51842;47.450;8.654;2024-03-23T01:30:35;94988.25;;;9.45;82.93
44297;BME280;51842;47.450;8.654;2024-03-23T01:35:38;94986.56;;;9.75;80.41
44297;BME280;51842;47.450;8.654;2024-03-23T01:38:04;94980.09;;;9.86;78.85
44297;BME280;51842;47.450;8.654;2024-03-23T01:40:30;94978.19;;;9.97;77.87
44297;BME280;51842;47.450;8.654;2024-03-23T01:43:07;94974.38;;;10.13;76.88
44297;BME280;51842;47.450;8.654;2024-03-23T01:45:37;94970.59;;;10.19;76.17
44297;BME280;51842;47.450;8.654;2024-03-23T01:48:03;94962.56;;;10.25;75.86
44297;BME280;51842;47.450;8.654;2024-03-23T01:50:31;94960.44;;;10.32;75.35
44297;BME280;51842;47.450;8.654;2024-03-23T01:53:03;94960.13;;;10.38;75.02
44297;BME280;51842;47.450;8.654;2024-03-23T01:55:32;94955.59;;;10.39;74.69
44297;BME280;51842;47.450;8.654;2024-03-23T01:57:58;94950.00;;;10.40;74.68
44297;BME280;51842;47.450;8.654;2024-03-23T02:00:25;94948.91;;;10.41;74.77
44297;BME280;51842;47.450;8.654;2024-03-23T02:02:51;94933.06;;;10.55;74.23
44297;BME280;51842;47.450;8.654;2024-03-23T02:05:16;94928.97;;;10.68;73.50
44297;BME280;51842;47.450;8.654;2024-03-23T02:07:43;94932.34;;;10.79;73.10
44297;BME280;51842;47.450;8.654;2024-03-23T02:10:10;94932.00;;;10.85;72.57
44297;BME280;51842;47.450;8.654;2024-03-23T02:12:39;94927.13;;;10.93;72.30
44297;BME280;51842;47.450;8.654;2024-03-23T02:15:05;94918.31;;;10.97;72.24
44297;BME280;51842;47.450;8.654;2024-03-23T02:17:35;94907.31;;;11.04;71.70
44297;BME280;51842;47.450;8.654;2024-03-23T02:20:02;94910.47;;;11.06;71.29
44297;BME280;51842;47.450;8.654;2024-03-23T02:22:39;94910.19;;;11.07;71.66
44297;BME280;51842;47.450;8.654;2024-03-23T02:25:06;94911.78;;;11.08;71.59
44297;BME280;51842;47.450;8.654;2024-03-23T02:27:33;94898.97;;;11.10;71.83
44297;BME280;51842;47.450;8.654;2024-03-23T02:30:05;94895.66;;;11.19;71.15
44297;BME280;51842;47.450;8.654;2024-03-23T02:32:31;94891.38;;;11.23;70.62
44297;BME280;51842;47.450;8.654;2024-03-23T02:34:57;94886.78;;;11.28;69.91
44297;BME280;51842;47.450;8.654;2024-03-23T02:37:22;94885.91;;;11.33;70.35
44297;BME280;51842;47.450;8.654;2024-03-23T02:39:48;94873.88;;;11.35;70.32
44297;BME280;51842;47.450;8.654;2024-03-23T02:42:14;94876.25;;;11.37;71.05
44297;BME280;51842;47.450;8.654;2024-03-23T02:44:42;94875.75;;;11.35;72.40
44297;BME280;51842;47.450;8.654;2024-03-23T02:47:08;94870.69;;;11.33;72.32
44297;BME280;51842;47.450;8.654;2024-03-23T02:49:34;94862.78;;;11.28;70.24
44297;BME280;51842;47.450;8.654;2024-03-23T02:51:59;94863.56;;;11.29;70.53
44297;BME280;51842;47.450;8.654;2024-03-23T02:54:25;94857.78;;;11.22;69.71
44297;BME280;51842;47.450;8.654;2024-03-23T02:56:51;94854.63;;;11.20;68.38
44297;BME280;51842;47.450;8.654;2024-03-23T02:59:17;94862.84;;;11.23;67.65
44297;BME280;51842;47.450;8.654;2024-03-23T03:01:43;94845.41;;;11.31;67.03
44297;BME280;51842;47.450;8.654;2024-03-23T03:04:08;94842.41;;;11.38;66.08
44297;BME280;51842;47.450;8.654;2024-03-23T03:06:34;94844.19;;;11.42;66.20
44297;BME280;51842;47.450;8.654;2024-03-23T03:09:00;94847.88;;;11.46;65.98
44297;BME280;51842;47.450;8.654;2024-03-23T03:11:26;94847.59;;;11.48;66.04
44297;BME280;51842;47.450;8.654;2024-03-23T03:13:52;94840.66;;;11.47;66.07
44297;BME280;51842;47.450;8.654;2024-03-23T03:16:18;94843.91;;;11.44;65.54
44297;BME280;51842;47.450;8.654;2024-03-23T03:18:44;94841.53;;;11.42;65.60
44297;BME280;51842;47.450;8.654;2024-03-23T03:21:12;94846.06;;;11.42;65.08
44297;BME280;51842;47.450;8.654;2024-03-23T03:23:39;94843.63;;;11.45;65.23
44297;BME280;51842;47.450;8.654;2024-03-23T03:26:06;94846.00;;;11.47;65.60
44297;BME280;51842;47.450;8.654;2024-03-23T03:28:33;94845.19;;;11.46;66.00
44297;BME280;51842;47.450;8.654;2024-03-23T03:30:59;94840.44;;;11.43;66.26
44297;BME280;51842;47.450;8.654;2024-03-23T03:33:27;94849.84;;;11.41;66.41
44297;BME280;51842;47.450;8.654;2024-03-23T03:35:54;94844.19;;;11.42;66.75
44297;BME280;51842;47.450;8.654;2024-03-23T03:38:20;94849.84;;;11.41;66.79
44297;BME280;51842;47.450;8.654;2024-03-23T03:40:46;94848.78;;;11.37;66.50
44297;BME280;51842;47.450;8.654;2024-03-23T03:43:12;94844.34;;;11.32;67.05
44297;BME280;51842;47.450;8.654;2024-03-23T03:45:38;94840.06;;;11.31;67.43
44297;BME280;51842;47.450;8.654;2024-03-23T03:48:04;94832.63;;;11.28;66.85
44297;BME280;51842;47.450;8.654;2024-03-23T03:50:30;94832.63;;;11.28;67.36
44297;BME280;51842;47.450;8.654;2024-03-23T03:52:56;94829.75;;;11.24;67.60
44297;BME280;51842;47.450;8.654;2024-03-23T03:55:22;94822.63;;;11.20;67.37
44297;BME280;51842;47.450;8.654;2024-03-23T03:57:48;94815.00;;;11.13;68.10
44297;BME280;51842;47.450;8.654;2024-03-23T04:00:14;94805.97;;;11.09;68.52
44297;BME280;51842;47.450;8.654;2024-03-23T04:02:41;94803.94;;;11.01;69.66
44297;BME280;51842;47.450;8.654;2024-03-23T04:05:07;94808.75;;;10.99;70.38
44297;BME280;51842;47.450;8.654;2024-03-23T04:07:34;94786.72;;;10.93;70.72
44297;BME280;51842;47.450;8.654;2024-03-23T04:09:59;94794.78;;;10.88;71.05
44297;BME280;51842;47.450;8.654;2024-03-23T04:12:25;94792.22;;;10.78;72.67
44297;BME280;51842;47.450;8.654;2024-03-23T04:14:51;94786.28;;;10.62;72.97
44297;BME280;51842;47.450;8.654;2024-03-23T04:17:17;94779.03;;;10.44;74.50
44297;BME280;51842;47.450;8.654;2024-03-23T04:19:44;94779.50;;;10.22;77.16
44297;BME280;51842;47.450;8.654;2024-03-23T04:22:10;94762.47;;;9.93;78.81
44297;BME280;51842;47.450;8.654;2024-03-23T04:24:36;94760.66;;;9.84;78.86
44297;BME280;51842;47.450;8.654;2024-03-23T04:27:02;94766.63;;;9.70;80.18
44297;BME280;51842;47.450;8.654;2024-03-23T04:29:28;94754.88;;;9.42;81.59
44297;BME280;51842;47.450;8.654;2024-03-23T04:31:54;94749.66;;;9.32;81.40
44297;BME280;51842;47.450;8.654;2024-03-23T04:34:21;94751.91;;;9.10;81.81
44297;BME280;51842;47.450;8.654;2024-03-23T04:36:48;94741.84;;;9.01;82.84
44297;BME280;51842;47.450;8.654;2024-03-23T04:39:14;94731.06;;;8.83;83.75
44297;BME280;51842;47.450;8.654;2024-03-23T04:41:40;94729.56;;;8.71;84.87
44297;BME280;51842;47.450;8.654;2024-03-23T04:44:06;94722.16;;;8.63;84.65
44297;BME280;51842;47.450;8.654;2024-03-23T04:46:32;94723.53;;;8.55;85.20
44297;BME280;51842;47.450;8.654;2024-03-23T04:48:57;94722.75;;;8.50;85.61
44297;BME280;51842;47.450;8.654;2024-03-23T04:51:24;94719.06;;;8.41;86.73
44297;BME280;51842;47.450;8.654;2024-03-23T04:53:50;94709.50;;;8.40;86.52
44297;BME280;51842;47.450;8.654;2024-03-23T04:56:17;94701.25;;;8.46;87.33
44297;BME280;51842;47.450;8.654;2024-03-23T04:58:44;94711.88;;;8.46;85.96
44297;BME280;51842;47.450;8.654;2024-03-23T05:01:12;94701.22;;;8.51;85.44
44297;BME280;51842;47.450;8.654;2024-03-23T05:03:38;94694.03;;;8.62;84.87
44297;BME280;51842;47.450;8.654;2024-03-23T05:06:04;94692.63;;;8.75;84.42
44297;BME280;51842;47.450;8.654;2024-03-23T05:08:31;94691.16;;;8.98;82.33
44297;BME280;51842;47.450;8.654;2024-03-23T05:10:57;94693.16;;;9.16;80.55
44297;BME280;51842;47.450;8.654;2024-03-23T05:13:22;94689.84;;;9.35;78.42
44297;BME280;51842;47.450;8.654;2024-03-23T05:15:55;94679.81;;;9.56;77.40
44297;BME280;51842;47.450;8.654;2024-03-23T05:18:22;94683.94;;;9.72;76.36
44297;BME280;51842;47.450;8.654;2024-03-23T05:20:48;94695.72;;;9.90;75.03
44297;BME280;51842;47.450;8.654;2024-03-23T05:23:14;94709.09;;;10.09;74.10
44297;BME280;51842;47.450;8.654;2024-03-23T05:25:41;94727.28;;;10.26;72.65
44297;BME280;51842;47.450;8.654;2024-03-23T05:28:06;94751.16;;;10.36;73.40
44297;BME280;51842;47.450;8.654;2024-03-23T05:30:32;94750.53;;;10.44;79.36
44297;BME280;51842;47.450;8.654;2024-03-23T05:32:58;94758.53;;;10.44;82.96
44297;BME280;51842;47.450;8.654;2024-03-23T05:35:24;94775.63;;;10.38;88.19
44297;BME280;51842;47.450;8.654;2024-03-23T05:37:50;94791.50;;;10.19;92.23
44297;BME280;51842;47.450;8.654;2024-03-23T05:40:16;94781.59;;;9.95;97.38
44297;BME280;51842;47.450;8.654;2024-03-23T05:42:42;94775.66;;;9.75;100.00
44297;BME280;51842;47.450;8.654;2024-03-23T05:45:08;94775.94;;;9.73;100.00
44297;BME280;51842;47.450;8.654;2024-03-23T05:47:34;94791.44;;;9.61;100.00
44297;BME280;51842;47.450;8.654;2024-03-23T05:50:00;94796.53;;;9.52;100.00
44297;BME280;51842;47.450;8.654;2024-03-23T05:52:27;94781.16;;;9.49;100.00
44297;BME280;51842;47.450;8.654;2024-03-23T05:54:53;94780.69;;;9.37;100.00
44297;BME280;51842;47.450;8.654;2024-03-23T05:57:18;94792.16;;;9.32;100.00
44297;BME280;51842;47.450;8.654;2024-03-23T05:59:45;94800.94;;;9.33;100.00
44297;BME280;51842;47.450;8.654;2024-03-23T06:02:11;94806.28;;;9.27;100.00
44297;BME280;51842;47.450;8.654;2024-03-23T06:04:37;94811.34;;;9.24;100.00
44297;BME280;51842;47.450;8.654;2024-03-23T06:07:04;94813.72;;;9.25;100.00
44297;BME280;51842;47.450;8.654;2024-03-23T06:09:32;94818.03;;;9.16;100.00
44297;BME280;51842;47.450;8.654;2024-03-23T06:11:58;94820.44;;;9.13;100.00
44297;BME280;51842;47.450;8.654;2024-03-23T06:14:23;94825.00;;;9.02;100.00
44297;BME280;51842;47.450;8.654;2024-03-23T06:16:49;94834.59;;;8.98;100.00
44297;BME280;51842;47.450;8.654;2024-03-23T06:19:15;94823.97;;;8.93;100.00
44297;BME280;51842;47.450;8.654;2024-03-23T06:21:45;94832.78;;;8.88;100.00
44297;BME280;51842;47.450;8.654;2024-03-23T06:24:12;94835.69;;;8.87;100.00
44297;BME280;51842;47.450;8.654;2024-03-23T06:26:38;94841.28;;;8.80;100.00
44297;BME280;51842;47.450;8.654;2024-03-23T06:29:04;94853.53;;;8.76;100.00
44297;BME280;51842;47.450;8.654;2024-03-23T06:31:31;94856.47;;;8.74;100.00
44297;BME280;51842;47.450;8.654;2024-03-23T06:33:57;94859.13;;;8.64;100.00
44297;BME280;51842;47.450;8.654;2024-03-23T06:36:23;94853.28;;;8.67;100.00
44297;BME280;51842;47.450;8.654;2024-03-23T06:38:48;94851.44;;;8.57;100.00
44297;BME280;51842;47.450;8.654;2024-03-23T06:41:15;94853.31;;;8.52;100.00
44297;BME280;51842;47.450;8.654;2024-03-23T06:43:40;94852.81;;;8.50;100.00
44297;BME280;51842;47.450;8.654;2024-03-23T06:46:06;94861.81;;;8.49;100.00
44297;BME280;51842;47.450;8.654;2024-03-23T06:48:32;94847.75;;;8.48;100.00
44297;BME280;51842;47.450;8.654;2024-03-23T06:50:59;94853.59;;;8.45;100.00
44297;BME280;51842;47.450;8.654;2024-03-23T06:53:25;94863.41;;;8.45;100.00
44297;BME280;51842;47.450;8.654;2024-03-23T06:55:53;94860.75;;;8.45;100.00
44297;BME280;51842;47.450;8.654;2024-03-23T06:58:24;94877.75;;;8.44;100.00
44297;BME280;51842;47.450;8.654;2024-03-23T07:00:51;94880.66;;;8.47;100.00
44297;BME280;51842;47.450;8.654;2024-03-23T07:03:17;94887.84;;;8.47;100.00
44297;BME280;51842;47.450;8.654;2024-03-23T07:05:43;94905.34;;;8.53;100.00
44297;BME280;51842;47.450;8.654;2024-03-23T07:08:09;94910.91;;;8.51;100.00
44297;BME280;51842;47.450;8.654;2024-03-23T07:10:40;94906.16;;;8.53;100.00
44297;BME280;51842;47.450;8.654;2024-03-23T07:13:06;94902.97;;;8.56;100.00
44297;BME280;51842;47.450;8.654;2024-03-23T07:15:32;94900.03;;;8.58;100.00
44297;BME280;51842;47.450;8.654;2024-03-23T07:17:57;94901.38;;;8.50;100.00
44297;BME280;51842;47.450;8.654;2024-03-23T07:20:23;94915.19;;;8.52;100.00
44297;BME280;51842;47.450;8.654;2024-03-23T07:22:49;94922.88;;;8.54;100.00
44297;BME280;51842;47.450;8.654;2024-03-23T07:25:15;94932.69;;;8.53;100.00
44297;BME280;51842;47.450;8.654;2024-03-23T07:27:41;94931.09;;;8.52;100.00
44297;BME280;51842;47.450;8.654;2024-03-23T07:30:07;94940.66;;;8.53;100.00
44297;BME280;51842;47.450;8.654;2024-03-23T07:32:35;94918.38;;;8.49;100.00
44297;BME280;51842;47.450;8.654;2024-03-23T07:35:01;94936.41;;;8.52;100.00
44297;BME280;51842;47.450;8.654;2024-03-23T07:37:27;94932.16;;;8.56;100.00
44297;BME280;51842;47.450;8.654;2024-03-23T07:39:53;94935.84;;;8.61;100.00
44297;BME280;51842;47.450;8.654;2024-03-23T07:42:18;94951.50;;;8.67;100.00
44297;BME280;51842;47.450;8.654;2024-03-23T07:44:44;94958.97;;;8.65;100.00
44297;BME280;51842;47.450;8.654;2024-03-23T07:47:12;94957.63;;;8.63;100.00
44297;BME280;51842;47.450;8.654;2024-03-23T07:49:38;94967.97;;;8.64;100.00
44297;BME280;51842;47.450;8.654;2024-03-23T07:52:05;94977.00;;;8.58;100.00
44297;BME280;51842;47.450;8.654;2024-03-23T07:54:31;94991.09;;;8.53;100.00
44297;BME280;51842;47.450;8.654;2024-03-23T07:56:57;94988.44;;;8.53;100.00
44297;BME280;51842;47.450;8.654;2024-03-23T07:59:23;94984.19;;;8.47;100.00
44297;BME280;51842;47.450;8.654;2024-03-23T08:01:49;95005.34;;;8.27;100.00
44297;BME280;51842;47.450;8.654;2024-03-23T08:04:15;95050.69;;;8.05;100.00
44297;BME280;51842;47.450;8.654;2024-03-23T08:06:40;95040.03;;;7.95;100.00
44297;BME280;51842;47.450;8.654;2024-03-23T08:09:06;95029.66;;;7.78;100.00
44297;BME280;51842;47.450;8.654;2024-03-23T08:11:32;95037.56;;;7.68;100.00
44297;BME280;51842;47.450;8.654;2024-03-23T08:14:01;95032.25;;;7.68;100.00
44297;BME280;51842;47.450;8.654;2024-03-23T08:16:27;95038.91;;;7.70;100.00
44297;BME280;51842;47.450;8.654;2024-03-23T08:18:54;95070.72;;;7.70;100.00
44297;BME280;51842;47.450;8.654;2024-03-23T08:21:23;95074.47;;;7.79;100.00
44297;BME280;51842;47.450;8.654;2024-03-23T08:23:50;95108.09;;;7.74;100.00
44297;BME280;51842;47.450;8.654;2024-03-23T08:26:16;95102.78;;;7.74;100.00
44297;BME280;51842;47.450;8.654;2024-03-23T08:28:45;95119.72;;;7.62;100.00
44297;BME280;51842;47.450;8.654;2024-03-23T08:31:13;95113.81;;;7.50;100.00
44297;BME280;51842;47.450;8.654;2024-03-23T08:33:40;95123.34;;;7.46;100.00
44297;BME280;51842;47.450;8.654;2024-03-23T08:36:10;95126.22;;;7.45;100.00
44297;BME280;51842;47.450;8.654;2024-03-23T08:38:40;95144.47;;;7.36;100.00
44297;BME280;51842;47.450;8.654;2024-03-23T08:41:09;95144.97;;;7.33;100.00
44297;BME280;51842;47.450;8.654;2024-03-23T08:43:39;95147.00;;;7.21;100.00
44297;BME280;51842;47.450;8.654;2024-03-23T08:46:15;95161.56;;;7.18;100.00
44297;BME280;51842;47.450;8.654;2024-03-23T08:48:45;95175.56;;;7.13;100.00
44297;BME280;51842;47.450;8.654;2024-03-23T08:51:15;95164.63;;;7.05;99.20
44297;BME280;51842;47.450;8.654;2024-03-23T08:53:43;95165.94;;;7.02;98.55
44297;BME280;51842;47.450;8.654;2024-03-23T08:56:10;95165.09;;;6.97;97.84
44297;BME280;51842;47.450;8.654;2024-03-23T08:58:38;95164.63;;;7.05;95.73
44297;BME280;51842;47.450;8.654;2024-03-23T09:01:13;95158.34;;;7.16;94.97
44297;BME280;51842;47.450;8.654;2024-03-23T09:03:40;95152.19;;;7.05;90.85
44297;BME280;51842;47.450;8.654;2024-03-23T09:06:13;95160.94;;;7.11;90.24
44297;BME280;51842;47.450;8.654;2024-03-23T09:08:40;95169.81;;;7.27;87.05
44297;BME280;51842;47.450;8.654;2024-03-23T09:11:10;95168.81;;;7.33;86.43
44297;BME280;51842;47.450;8.654;2024-03-23T09:13:37;95184.81;;;7.48;83.43
44297;BME280;51842;47.450;8.654;2024-03-23T09:16:06;95187.25;;;7.55;81.03
44297;BME280;51842;47.450;8.654;2024-03-23T09:18:34;95193.91;;;7.57;78.77
44297;BME280;51842;47.450;8.654;2024-03-23T09:21:04;95205.06;;;7.59;76.63
44297;BME280;51842;47.450;8.654;2024-03-23T09:23:36;95196.44;;;7.42;71.97
44297;BME280;51842;47.450;8.654;2024-03-23T09:26:05;95213.97;;;7.48;73.71
44297;BME280;51842;47.450;8.654;2024-03-23T09:28:34;95208.66;;;7.43;71.66
44297;BME280;51842;47.450;8.654;2024-03-23T09:31:05;95228.03;;;7.49;74.04
44297;BME280;51842;47.450;8.654;2024-03-23T09:33:31;95234.44;;;7.53;72.53
44297;BME280;51842;47.450;8.654;2024-03-23T09:35:57;95240.03;;;7.61;74.33
44297;BME280;51842;47.450;8.654;2024-03-23T09:38:23;95240.25;;;7.55;75.00
44297;BME280;51842;47.450;8.654;2024-03-23T09:40:53;95251.63;;;7.50;72.58
44297;BME280;51842;47.450;8.654;2024-03-23T09:43:20;95249.19;;;7.44;73.90
44297;BME280;51842;47.450;8.654;2024-03-23T09:45:46;95241.59;;;7.52;74.26
44297;BME280;51842;47.450;8.654;2024-03-23T09:48:13;95231.91;;;7.36;72.70
44297;BME280;51842;47.450;8.654;2024-03-23T09:50:39;95229.22;;;7.31;72.00
44297;BME280;51842;47.450;8.654;2024-03-23T09:53:13;95237.03;;;7.48;73.62
44297;BME280;51842;47.450;8.654;2024-03-23T09:55:43;95249.78;;;7.51;72.93
44297;BME280;51842;47.450;8.654;2024-03-23T09:58:16;95253.00;;;7.53;73.19
44297;BME280;51842;47.450;8.654;2024-03-23T10:00:43;95247.94;;;7.51;74.06
44297;BME280;51842;47.450;8.654;2024-03-23T10:03:09;95249.19;;;7.44;71.94
44297;BME280;51842;47.450;8.654;2024-03-23T10:05:37;95269.75;;;7.58;72.18
44297;BME280;51842;47.450;8.654;2024-03-23T10:08:19;95259.22;;;7.69;70.52
44297;BME280;51842;47.450;8.654;2024-03-23T10:10:46;95250.34;;;7.53;69.91
44297;BME280;51842;47.450;8.654;2024-03-23T10:13:26;95263.88;;;7.56;70.47
44297;BME280;51842;47.450;8.654;2024-03-23T10:15:58;95265.97;;;7.54;70.42
44297;BME280;51842;47.450;8.654;2024-03-23T10:18:26;95276.16;;;7.35;70.73
44297;BME280;51842;47.450;8.654;2024-03-23T10:23:43;95291.19;;;7.57;70.08
44297;BME280;51842;47.450;8.654;2024-03-23T10:26:18;95280.75;;;7.45;66.50
44297;BME280;51842;47.450;8.654;2024-03-23T10:28:58;95289.25;;;7.47;66.27
44297;BME280;51842;47.450;8.654;2024-03-23T10:31:31;95272.38;;;7.58;64.13
44297;BME280;51842;47.450;8.654;2024-03-23T10:33:58;95282.63;;;7.82;63.56
44297;BME280;51842;47.450;8.654;2024-03-23T10:36:25;95278.16;;;7.87;61.83
44297;BME280;51842;47.450;8.654;2024-03-23T10:38:55;95273.84;;;7.76;61.18
44297;BME280;51842;47.450;8.654;2024-03-23T10:41:20;95270.66;;;7.79;60.35
44297;BME280;51842;47.450;8.654;2024-03-23T10:43:49;95265.94;;;7.86;58.90
44297;BME280;51842;47.450;8.654;2024-03-23T10:46:15;95270.78;;;7.95;59.21
44297;BME280;51842;47.450;8.654;2024-03-23T10:48:42;95276.19;;;8.10;56.76
44297;BME280;51842;47.450;8.654;2024-03-23T10:51:10;95274.16;;;8.22;57.73
44297;BME280;51842;47.450;8.654;2024-03-23T10:53:36;95281.09;;;8.28;56.14
44297;BME280;51842;47.450;8.654;2024-03-23T10:56:05;95272.28;;;8.23;55.45
44297;BME280;51842;47.450;8.654;2024-03-23T10:58:45;95283.69;;;8.23;56.00
44297;BME280;51842;47.450;8.654;2024-03-23T11:01:13;95275.22;;;8.21;54.70
44297;BME280;51842;47.450;8.654;2024-03-23T11:03:46;95264.75;;;8.47;56.82
44297;BME280;51842;47.450;8.654;2024-03-23T11:06:39;95271.38;;;8.44;57.08
44297;BME280;51842;47.450;8.654;2024-03-23T11:09:43;95289.75;;;8.56;55.60
44297;BME280;51842;47.450;8.654;2024-03-23T11:15:12;95276.31;;;8.88;57.30
44297;BME280;51842;47.450;8.654;2024-03-23T11:17:38;95265.81;;;9.34;56.61
44297;BME280;51842;47.450;8.654;2024-03-23T11:20:06;95257.56;;;10.12;54.67
44297;BME280;51842;47.450;8.654;2024-03-23T11:22:46;95249.72;;;10.57;53.85
44297;BME280;51842;47.450;8.654;2024-03-23T11:25:23;95236.47;;;10.47;51.79
44297;BME280;51842;47.450;8.654;2024-03-23T11:27:55;95255.06;;;10.57;51.89
44297;BME280;51842;47.450;8.654;2024-03-23T11:30:27;95235.94;;;10.45;51.62
44297;BME280;51842;47.450;8.654;2024-03-23T11:32:58;95260.44;;;10.36;47.90
44297;BME280;51842;47.450;8.654;2024-03-23T11:35:37;95253.28;;;10.32;50.91
44297;BME280;51842;47.450;8.654;2024-03-23T11:38:17;95251.94;;;10.29;46.76
44297;BME280;51842;47.450;8.654;2024-03-23T11:40:49;95247.94;;;10.32;48.74
44297;BME280;51842;47.450;8.654;2024-03-23T11:43:19;95264.72;;;10.37;46.28
44297;BME280;51842;47.450;8.654;2024-03-23T11:48:18;95252.75;;;10.09;45.47
44297;BME280;51842;47.450;8.654;2024-03-23T11:50:47;95256.50;;;9.88;45.04
44297;BME280;51842;47.450;8.654;2024-03-23T11:53:22;95250.38;;;9.92;45.13
44297;BME280;51842;47.450;8.654;2024-03-23T11:55:56;95251.94;;;10.09;45.16
44297;BME280;51842;47.450;8.654;2024-03-23T11:58:25;95255.13;;;10.21;44.58
44297;BME280;51842;47.450;8.654;2024-03-23T12:00:59;95238.34;;;10.41;46.16
44297;BME280;51842;47.450;8.654;2024-03-23T12:03:27;95234.78;;;10.61;44.94
44297;BME280;51842;47.450;8.654;2024-03-23T12:06:00;95230.84;;;10.48;44.95
44297;BME280;51842;47.450;8.654;2024-03-23T12:08:35;95246.09;;;10.17;44.23
44297;BME280;51842;47.450;8.654;2024-03-23T12:11:09;95240.16;;;10.51;44.79
44297;BME280;51842;47.450;8.654;2024-03-23T12:13:36;95236.50;;;10.26;45.40
44297;BME280;51842;47.450;8.654;2024-03-23T12:16:21;95235.97;;;10.09;45.37
44297;BME280;51842;47.450;8.654;2024-03-23T12:18:50;95245.81;;;10.13;50.06
44297;BME280;51842;47.450;8.654;2024-03-23T12:21:17;95236.31;;;9.61;57.63
44297;BME280;51842;47.450;8.654;2024-03-23T12:23:44;95251.41;;;9.15;61.83
44297;BME280;51842;47.450;8.654;2024-03-23T12:26:12;95247.28;;;8.61;64.31
44297;BME280;51842;47.450;8.654;2024-03-23T12:28:38;95247.00;;;8.52;65.72
44297;BME280;51842;47.450;8.654;2024-03-23T12:31:04;95272.47;;;8.06;67.49
44297;BME280;51842;47.450;8.654;2024-03-23T12:33:31;95241.78;;;8.25;68.53
44297;BME280;51842;47.450;8.654;2024-03-23T12:35:57;95261.47;;;8.34;67.86
44297;BME280;51842;47.450;8.654;2024-03-23T12:38:23;95258.25;;;8.27;66.51
44297;BME280;51842;47.450;8.654;2024-03-23T12:40:51;95252.88;;;8.65;66.15
44297;BME280;51842;47.450;8.654;2024-03-23T12:43:17;95247.09;;;8.78;65.39
44297;BME280;51842;47.450;8.654;2024-03-23T12:45:48;95247.88;;;8.84;64.04
44297;BME280;51842;47.450;8.654;2024-03-23T12:48:15;95247.19;;;9.29;64.19
44297;BME280;51842;47.450;8.654;2024-03-23T12:50:41;95242.16;;;9.68;62.94
44297;BME280;51842;47.450;8.654;2024-03-23T12:53:07;95226.94;;;10.00;60.42
44297;BME280;51842;47.450;8.654;2024-03-23T12:55:35;95226.97;;;9.94;58.03
44297;BME280;51842;47.450;8.654;2024-03-23T12:58:01;95217.03;;;10.36;56.32
44297;BME280;51842;47.450;8.654;2024-03-23T13:00:27;95223.88;;;10.62;54.37
44297;BME280;51842;47.450;8.654;2024-03-23T13:02:53;95209.91;;;10.81;51.92
44297;BME280;51842;47.450;8.654;2024-03-23T13:05:19;95217.13;;;11.25;53.49
44297;BME280;51842;47.450;8.654;2024-03-23T13:07:45;95212.06;;;11.63;49.15
44297;BME280;51842;47.450;8.654;2024-03-23T13:10:11;95212.66;;;11.89;49.60
44297;BME280;51842;47.450;8.654;2024-03-23T13:12:36;95218.16;;;12.26;50.22
44297;BME280;51842;47.450;8.654;2024-03-23T13:15:03;95214.41;;;11.98;49.51
44297;BME280;51842;47.450;8.654;2024-03-23T13:17:29;95211.16;;;12.07;48.28
44297;BME280;51842;47.450;8.654;2024-03-23T13:19:55;95208.75;;;12.05;48.09
44297;BME280;51842;47.450;8.654;2024-03-23T13:22:22;95218.41;;;12.25;52.06
44297;BME280;51842;47.450;8.654;2024-03-23T13:24:48;95208.66;;;12.39;48.18
44297;BME280;51842;47.450;8.654;2024-03-23T13:27:14;95199.97;;;12.71;48.52
44297;BME280;51842;47.450;8.654;2024-03-23T13:29:40;95190.34;;;13.13;49.40
44297;BME280;51842;47.450;8.654;2024-03-23T13:32:06;95196.50;;;13.33;47.40
44297;BME280;51842;47.450;8.654;2024-03-23T13:34:32;95196.63;;;13.41;48.44
44297;BME280;51842;47.450;8.654;2024-03-23T13:37:01;95201.03;;;13.51;45.27
44297;BME280;51842;47.450;8.654;2024-03-23T13:39:28;95186.25;;;13.86;47.96
44297;BME280;51842;47.450;8.654;2024-03-23T13:41:54;95187.47;;;14.22;44.29
44297;BME280;51842;47.450;8.654;2024-03-23T13:44:21;95181.84;;;14.37;45.73
44297;BME280;51842;47.450;8.654;2024-03-23T13:46:48;95194.25;;;13.73;42.79
44297;BME280;51842;47.450;8.654;2024-03-23T13:49:31;95190.56;;;13.36;45.24
44297;BME280;51842;47.450;8.654;2024-03-23T13:51:59;95208.91;;;13.42;44.98
44297;BME280;51842;47.450;8.654;2024-03-23T13:54:28;95188.38;;;13.00;50.01
44297;BME280;51842;47.450;8.654;2024-03-23T13:56:56;95185.69;;;12.81;49.57
44297;BME280;51842;47.450;8.654;2024-03-23T13:59:23;95186.06;;;12.93;49.72
44297;BME280;51842;47.450;8.654;2024-03-23T14:01:50;95188.63;;;12.61;50.39
44297;BME280;51842;47.450;8.654;2024-03-23T14:04:17;95178.44;;;12.63;49.06
44297;BME280;51842;47.450;8.654;2024-03-23T14:06:45;95174.34;;;13.08;46.73
44297;BME280;51842;47.450;8.654;2024-03-23T14:09:15;95175.13;;;13.79;46.35
44297;BME280;51842;47.450;8.654;2024-03-23T14:11:46;95149.69;;;13.63;41.73